sensor_id;sensor_type;location;lat;lon;timestamp;P1;durP1;ratioP1;P2;durP2;ratioP2
20896;SDS011;10608;42.600;23.398;2023-03-03T00:00:23;37.23;;;35.67;;
20896;SDS011;10608;42.600;23.398;2023-03-03T00:02:48;39.10;;;37.50;;
20896;SDS011;10608;42.600;23.398;2023-03-03T00:05:13;31.60;;;29.97;;
20896;SDS011;10608;42.600;23.398;2023-03-03T00:07:44;25.87;;;24.87;;
20896;SDS011;10608;42.600;23.398;2023-03-03T00:10:09;28.27;;;26.90;;
20896;SDS011;10608;42.600;23.398;2023-03-03T00:12:35;27.40;;;26.30;;
20896;SDS011;10608;42.600;23.398;2023-03-03T00:15:11;30.03;;;28.83;;
20896;SDS011;10608;42.600;23.398;2023-03-03T00:17:38;27.90;;;26.80;;
20896;SDS011;10608;42.600;23.398;2023-03-03T00:20:21;32.47;;;31.13;;
20896;SDS011;10608;42.600;23.398;2023-03-03T00:22:48;22.80;;;21.87;;
20896;SDS011;10608;42.600;23.398;2023-03-03T00:25:28;22.23;;;21.33;;
20896;SDS011;10608;42.600;23.398;2023-03-03T00:27:53;24.20;;;23.20;;
20896;SDS011;10608;42.600;23.398;2023-03-03T00:30:22;23.57;;;22.67;;
20896;SDS011;10608;42.600;23.398;2023-03-03T00:32:48;21.83;;;20.93;;
20896;SDS011;10608;42.600;23.398;2023-03-03T00:35:23;20.93;;;20.13;;
20896;SDS011;10608;42.600;23.398;2023-03-03T00:37:54;23.17;;;22.23;;
20896;SDS011;10608;42.600;23.398;2023-03-03T00:42:54;24.50;;;23.47;;
20896;SDS011;10608;42.600;23.398;2023-03-03T00:45:54;24.60;;;23.60;;
20896;SDS011;10608;42.600;23.398;2023-03-03T00:48:20;24.90;;;23.93;;
20896;SDS011;10608;42.600;23.398;2023-03-03T00:50:45;21.13;;;20.30;;
20896;SDS011;10608;42.600;23.398;2023-03-03T00:53:12;33.80;;;32.43;;
20896;SDS011;10608;42.600;23.398;2023-03-03T00:55:38;32.03;;;30.73;;
20896;SDS011;10608;42.600;23.398;2023-03-03T00:58:04;32.03;;;30.77;;
20896;SDS011;10608;42.600;23.398;2023-03-03T01:00:30;25.13;;;24.13;;
20896;SDS011;10608;42.600;23.398;2023-03-03T01:02:55;21.90;;;21.03;;
20896;SDS011;10608;42.600;23.398;2023-03-03T01:05:20;22.10;;;21.20;;
20896;SDS011;10608;42.600;23.398;2023-03-03T01:07:46;22.57;;;21.67;;
20896;SDS011;10608;42.600;23.398;2023-03-03T01:10:11;20.43;;;19.63;;
20896;SDS011;10608;42.600;23.398;2023-03-03T01:12:36;19.80;;;19.00;;
20896;SDS011;10608;42.600;23.398;2023-03-03T01:15:03;20.93;;;20.13;;
20896;SDS011;10608;42.600;23.398;2023-03-03T01:17:28;29.10;;;27.93;;
20896;SDS011;10608;42.600;23.398;2023-03-03T01:19:54;21.70;;;20.83;;
20896;SDS011;10608;42.600;23.398;2023-03-03T01:22:19;24.73;;;23.77;;
20896;SDS011;10608;42.600;23.398;2023-03-03T01:24:44;25.07;;;24.07;;
20896;SDS011;10608;42.600;23.398;2023-03-03T01:27:09;24.47;;;23.47;;
20896;SDS011;10608;42.600;23.398;2023-03-03T01:29:35;24.87;;;23.87;;
20896;SDS011;10608;42.600;23.398;2023-03-03T01:32:00;29.53;;;28.33;;
20896;SDS011;10608;42.600;23.398;2023-03-03T01:34:25;30.90;;;29.63;;
20896;SDS011;10608;42.600;23.398;2023-03-03T01:36:50;37.77;;;36.27;;
20896;SDS011;10608;42.600;23.398;2023-03-03T01:39:16;36.37;;;34.87;;
20896;SDS011;10608;42.600;23.398;2023-03-03T01:41:41;35.17;;;33.77;;
20896;SDS011;10608;42.600;23.398;2023-03-03T01:44:08;28.00;;;26.90;;
20896;SDS011;10608;42.600;23.398;2023-03-03T01:49:10;26.43;;;25.40;;
20896;SDS011;10608;42.600;23.398;2023-03-03T01:51:37;28.10;;;27.00;;
20896;SDS011;10608;42.600;23.398;2023-03-03T01:54:09;26.83;;;25.73;;
20896;SDS011;10608;42.600;23.398;2023-03-03T01:56:35;27.70;;;26.60;;
20896;SDS011;10608;42.600;23.398;2023-03-03T01:59:04;30.37;;;29.17;;
20896;SDS011;10608;42.600;23.398;2023-03-03T02:01:31;28.17;;;27.07;;
20896;SDS011;10608;42.600;23.398;2023-03-03T02:03:57;37.80;;;36.20;;
20896;SDS011;10608;42.600;23.398;2023-03-03T02:06:23;28.93;;;27.77;;
20896;SDS011;10608;42.600;23.398;2023-03-03T02:08:54;26.47;;;25.40;;
20896;SDS011;10608;42.600;23.398;2023-03-03T02:11:23;23.87;;;22.93;;
20896;SDS011;10608;42.600;23.398;2023-03-03T02:13:48;24.13;;;23.17;;
20896;SDS011;10608;42.600;23.398;2023-03-03T02:16:13;25.87;;;24.83;;
20896;SDS011;10608;42.600;23.398;2023-03-03T02:18:39;25.17;;;24.17;;
20896;SDS011;10608;42.600;23.398;2023-03-03T02:21:06;29.40;;;28.20;;
20896;SDS011;10608;42.600;23.398;2023-03-03T02:23:45;22.23;;;21.33;;
20896;SDS011;10608;42.600;23.398;2023-03-03T02:28:38;22.33;;;21.43;;
20896;SDS011;10608;42.600;23.398;2023-03-03T02:31:05;26.67;;;25.60;;
20896;SDS011;10608;42.600;23.398;2023-03-03T02:33:31;31.83;;;30.53;;
20896;SDS011;10608;42.600;23.398;2023-03-03T02:35:56;40.90;;;39.20;;
20896;SDS011;10608;42.600;23.398;2023-03-03T02:43:17;42.43;;;40.57;;
20896;SDS011;10608;42.600;23.398;2023-03-03T02:45:44;52.77;;;50.57;;
20896;SDS011;10608;42.600;23.398;2023-03-03T02:48:09;61.30;;;58.80;;
20896;SDS011;10608;42.600;23.398;2023-03-03T02:50:35;52.60;;;50.43;;
20896;SDS011;10608;42.600;23.398;2023-03-03T02:53:00;31.47;;;30.20;;
20896;SDS011;10608;42.600;23.398;2023-03-03T02:55:25;31.93;;;30.63;;
20896;SDS011;10608;42.600;23.398;2023-03-03T02:57:51;27.80;;;26.70;;
20896;SDS011;10608;42.600;23.398;2023-03-03T03:00:16;30.30;;;29.10;;
20896;SDS011;10608;42.600;23.398;2023-03-03T03:02:41;29.60;;;28.40;;
20896;SDS011;10608;42.600;23.398;2023-03-03T03:05:07;31.40;;;30.10;;
20896;SDS011;10608;42.600;23.398;2023-03-03T03:07:33;28.13;;;27.03;;
20896;SDS011;10608;42.600;23.398;2023-03-03T03:09:58;28.47;;;27.33;;
20896;SDS011;10608;42.600;23.398;2023-03-03T03:12:23;29.63;;;28.43;;
20896;SDS011;10608;42.600;23.398;2023-03-03T03:14:49;28.87;;;27.67;;
20896;SDS011;10608;42.600;23.398;2023-03-03T03:17:14;30.33;;;29.13;;
20896;SDS011;10608;42.600;23.398;2023-03-03T03:19:39;30.93;;;29.70;;
20896;SDS011;10608;42.600;23.398;2023-03-03T03:22:04;26.13;;;25.03;;
20896;SDS011;10608;42.600;23.398;2023-03-03T03:24:29;26.87;;;25.60;;
20896;SDS011;10608;42.600;23.398;2023-03-03T03:26:55;25.60;;;24.60;;
20896;SDS011;10608;42.600;23.398;2023-03-03T03:29:20;25.50;;;24.50;;
20896;SDS011;10608;42.600;23.398;2023-03-03T03:31:46;23.50;;;22.60;;
20896;SDS011;10608;42.600;23.398;2023-03-03T03:34:11;26.30;;;25.27;;
20896;SDS011;10608;42.600;23.398;2023-03-03T03:36:36;34.70;;;33.23;;
20896;SDS011;10608;42.600;23.398;2023-03-03T03:39:03;41.17;;;39.43;;
20896;SDS011;10608;42.600;23.398;2023-03-03T03:41:30;47.03;;;45.07;;
20896;SDS011;10608;42.600;23.398;2023-03-03T03:43:56;40.37;;;38.67;;
20896;SDS011;10608;42.600;23.398;2023-03-03T03:46:21;37.83;;;36.30;;
20896;SDS011;10608;42.600;23.398;2023-03-03T03:48:46;27.53;;;26.43;;
20896;SDS011;10608;42.600;23.398;2023-03-03T03:51:12;29.80;;;28.50;;
20896;SDS011;10608;42.600;23.398;2023-03-03T03:53:37;26.77;;;25.67;;
20896;SDS011;10608;42.600;23.398;2023-03-03T03:56:02;22.07;;;21.17;;
20896;SDS011;10608;42.600;23.398;2023-03-03T03:58:27;21.40;;;20.60;;
20896;SDS011;10608;42.600;23.398;2023-03-03T04:00:53;27.13;;;26.03;;
20896;SDS011;10608;42.600;23.398;2023-03-03T04:03:18;27.50;;;26.40;;
20896;SDS011;10608;42.600;23.398;2023-03-03T04:05:44;28.27;;;27.17;;
20896;SDS011;10608;42.600;23.398;2023-03-03T04:08:09;28.83;;;27.67;;
20896;SDS011;10608;42.600;23.398;2023-03-03T04:10:34;26.73;;;25.67;;
20896;SDS011;10608;42.600;23.398;2023-03-03T04:13:00;29.27;;;27.97;;
20896;SDS011;10608;42.600;23.398;2023-03-03T04:15:25;28.63;;;27.50;;
20896;SDS011;10608;42.600;23.398;2023-03-03T04:17:50;28.60;;;27.37;;
20896;SDS011;10608;42.600;23.398;2023-03-03T04:20:15;29.00;;;27.80;;
20896;SDS011;10608;42.600;23.398;2023-03-03T04:22:41;26.20;;;25.17;;
20896;SDS011;10608;42.600;23.398;2023-03-03T04:25:07;27.50;;;26.40;;
20896;SDS011;10608;42.600;23.398;2023-03-03T04:27:35;24.10;;;23.17;;
20896;SDS011;10608;42.600;23.398;2023-03-03T04:30:01;25.13;;;24.13;;
20896;SDS011;10608;42.600;23.398;2023-03-03T04:32:26;19.73;;;18.93;;
20896;SDS011;10608;42.600;23.398;2023-03-03T04:34:52;19.00;;;18.20;;
20896;SDS011;10608;42.600;23.398;2023-03-03T04:37:17;20.43;;;19.63;;
20896;SDS011;10608;42.600;23.398;2023-03-03T04:39:43;21.20;;;20.40;;
20896;SDS011;10608;42.600;23.398;2023-03-03T04:42:08;23.37;;;22.47;;
20896;SDS011;10608;42.600;23.398;2023-03-03T04:44:33;23.03;;;22.13;;
20896;SDS011;10608;42.600;23.398;2023-03-03T04:46:58;20.53;;;19.70;;
20896;SDS011;10608;42.600;23.398;2023-03-03T04:49:23;19.23;;;18.50;;
20896;SDS011;10608;42.600;23.398;2023-03-03T04:51:49;18.70;;;18.00;;
20896;SDS011;10608;42.600;23.398;2023-03-03T04:54:14;22.00;;;21.10;;
20896;SDS011;10608;42.600;23.398;2023-03-03T04:56:39;25.50;;;24.50;;
20896;SDS011;10608;42.600;23.398;2023-03-03T04:59:05;29.13;;;27.97;;
20896;SDS011;10608;42.600;23.398;2023-03-03T05:01:30;25.70;;;24.60;;
20896;SDS011;10608;42.600;23.398;2023-03-03T05:03:55;27.30;;;26.20;;
20896;SDS011;10608;42.600;23.398;2023-03-03T05:06:20;27.13;;;26.03;;
20896;SDS011;10608;42.600;23.398;2023-03-03T05:08:46;29.43;;;28.27;;
20896;SDS011;10608;42.600;23.398;2023-03-03T05:11:11;26.87;;;25.80;;
20896;SDS011;10608;42.600;23.398;2023-03-03T05:13:38;25.43;;;24.43;;
20896;SDS011;10608;42.600;23.398;2023-03-03T05:16:03;28.13;;;27.03;;
20896;SDS011;10608;42.600;23.398;2023-03-03T05:18:28;23.20;;;22.30;;
20896;SDS011;10608;42.600;23.398;2023-03-03T05:20:53;25.23;;;24.23;;
20896;SDS011;10608;42.600;23.398;2023-03-03T05:23:19;25.87;;;24.87;;
20896;SDS011;10608;42.600;23.398;2023-03-03T05:25:48;21.53;;;20.73;;
20896;SDS011;10608;42.600;23.398;2023-03-03T05:28:13;20.70;;;19.87;;
20896;SDS011;10608;42.600;23.398;2023-03-03T05:30:39;20.83;;;20.03;;
20896;SDS011;10608;42.600;23.398;2023-03-03T05:33:05;24.93;;;23.93;;
20896;SDS011;10608;42.600;23.398;2023-03-03T05:35:30;25.33;;;24.33;;
20896;SDS011;10608;42.600;23.398;2023-03-03T05:37:55;24.57;;;23.53;;
20896;SDS011;10608;42.600;23.398;2023-03-03T05:40:22;23.03;;;22.13;;
20896;SDS011;10608;42.600;23.398;2023-03-03T05:42:47;24.90;;;23.90;;
20896;SDS011;10608;42.600;23.398;2023-03-03T05:45:12;33.43;;;32.03;;
20896;SDS011;10608;42.600;23.398;2023-03-03T05:47:38;32.17;;;30.87;;
20896;SDS011;10608;42.600;23.398;2023-03-03T05:50:03;28.90;;;27.70;;
20896;SDS011;10608;42.600;23.398;2023-03-03T05:52:29;27.83;;;26.73;;
20896;SDS011;10608;42.600;23.398;2023-03-03T05:54:54;31.33;;;30.03;;
20896;SDS011;10608;42.600;23.398;2023-03-03T05:57:19;28.47;;;27.33;;
20896;SDS011;10608;42.600;23.398;2023-03-03T05:59:44;32.73;;;31.43;;
20896;SDS011;10608;42.600;23.398;2023-03-03T06:02:10;31.13;;;29.87;;
20896;SDS011;10608;42.600;23.398;2023-03-03T06:04:35;32.20;;;30.90;;
20896;SDS011;10608;42.600;23.398;2023-03-03T06:07:00;33.03;;;31.73;;
20896;SDS011;10608;42.600;23.398;2023-03-03T06:09:26;32.33;;;31.03;;
20896;SDS011;10608;42.600;23.398;2023-03-03T06:11:51;32.83;;;31.50;;
20896;SDS011;10608;42.600;23.398;2023-03-03T06:14:17;26.57;;;25.50;;
20896;SDS011;10608;42.600;23.398;2023-03-03T06:16:43;30.03;;;28.83;;
20896;SDS011;10608;42.600;23.398;2023-03-03T06:19:09;38.83;;;37.23;;
20896;SDS011;10608;42.600;23.398;2023-03-03T06:21:34;33.73;;;32.40;;
20896;SDS011;10608;42.600;23.398;2023-03-03T06:23:59;34.87;;;33.43;;
20896;SDS011;10608;42.600;23.398;2023-03-03T06:26:24;34.77;;;33.33;;
20896;SDS011;10608;42.600;23.398;2023-03-03T06:28:50;27.73;;;26.63;;
20896;SDS011;10608;42.600;23.398;2023-03-03T06:31:18;30.60;;;29.40;;
20896;SDS011;10608;42.600;23.398;2023-03-03T06:33:43;32.87;;;31.47;;
20896;SDS011;10608;42.600;23.398;2023-03-03T06:36:08;31.07;;;29.83;;
20896;SDS011;10608;42.600;23.398;2023-03-03T06:38:35;29.90;;;28.60;;
20896;SDS011;10608;42.600;23.398;2023-03-03T06:41:00;30.10;;;28.90;;
20896;SDS011;10608;42.600;23.398;2023-03-03T06:43:28;26.60;;;25.40;;
20896;SDS011;10608;42.600;23.398;2023-03-03T06:45:53;28.13;;;27.00;;
20896;SDS011;10608;42.600;23.398;2023-03-03T06:48:18;24.37;;;23.40;;
20896;SDS011;10608;42.600;23.398;2023-03-03T06:50:44;28.43;;;27.03;;
20896;SDS011;10608;42.600;23.398;2023-03-03T06:53:10;40.67;;;38.97;;
20896;SDS011;10608;42.600;23.398;2023-03-03T06:55:36;35.53;;;33.83;;
20896;SDS011;10608;42.600;23.398;2023-03-03T06:58:03;32.37;;;30.77;;
20896;SDS011;10608;42.600;23.398;2023-03-03T07:00:52;27.53;;;26.43;;
20896;SDS011;10608;42.600;23.398;2023-03-03T07:03:25;35.13;;;33.70;;
20896;SDS011;10608;42.600;23.398;2023-03-03T07:05:52;39.67;;;37.97;;
20896;SDS011;10608;42.600;23.398;2023-03-03T07:08:19;39.27;;;37.67;;
20896;SDS011;10608;42.600;23.398;2023-03-03T07:10:45;37.33;;;35.73;;
20896;SDS011;10608;42.600;23.398;2023-03-03T07:15:42;25.20;;;24.20;;
20896;SDS011;10608;42.600;23.398;2023-03-03T07:20:54;29.67;;;28.37;;
20896;SDS011;10608;42.600;23.398;2023-03-03T07:25:47;24.23;;;23.20;;
20896;SDS011;10608;42.600;23.398;2023-03-03T07:30:38;25.63;;;24.33;;
20896;SDS011;10608;42.600;23.398;2023-03-03T07:33:04;28.90;;;27.60;;
20896;SDS011;10608;42.600;23.398;2023-03-03T07:37:57;28.47;;;27.20;;
20896;SDS011;10608;42.600;23.398;2023-03-03T07:42:57;26.03;;;25.00;;
20896;SDS011;10608;42.600;23.398;2023-03-03T07:45:26;29.97;;;28.77;;
20896;SDS011;10608;42.600;23.398;2023-03-03T07:47:58;22.83;;;21.83;;
20896;SDS011;10608;42.600;23.398;2023-03-03T07:50:25;21.70;;;20.80;;
20896;SDS011;10608;42.600;23.398;2023-03-03T07:52:54;26.07;;;25.03;;
20896;SDS011;10608;42.600;23.398;2023-03-03T07:55:33;29.00;;;27.77;;
20896;SDS011;10608;42.600;23.398;2023-03-03T08:03:24;40.07;;;38.37;;
20896;SDS011;10608;42.600;23.398;2023-03-03T08:05:49;37.80;;;36.17;;
20896;SDS011;10608;42.600;23.398;2023-03-03T08:10:46;28.30;;;26.87;;
20896;SDS011;10608;42.600;23.398;2023-03-03T08:13:15;27.83;;;26.70;;
20896;SDS011;10608;42.600;23.398;2023-03-03T08:15:41;27.80;;;26.57;;
20896;SDS011;10608;42.600;23.398;2023-03-03T08:18:15;38.27;;;36.67;;
20896;SDS011;10608;42.600;23.398;2023-03-03T08:20:43;30.60;;;29.33;;
20896;SDS011;10608;42.600;23.398;2023-03-03T08:23:09;29.33;;;28.13;;
20896;SDS011;10608;42.600;23.398;2023-03-03T08:25:35;33.97;;;32.53;;
20896;SDS011;10608;42.600;23.398;2023-03-03T08:28:00;45.63;;;43.67;;
20896;SDS011;10608;42.600;23.398;2023-03-03T08:30:25;38.00;;;36.43;;
20896;SDS011;10608;42.600;23.398;2023-03-03T08:32:51;26.00;;;24.93;;
20896;SDS011;10608;42.600;23.398;2023-03-03T08:35:16;33.23;;;31.87;;
20896;SDS011;10608;42.600;23.398;2023-03-03T08:37:41;28.20;;;27.10;;
20896;SDS011;10608;42.600;23.398;2023-03-03T08:40:07;33.77;;;32.37;;
20896;SDS011;10608;42.600;23.398;2023-03-03T08:42:32;30.80;;;29.50;;
20896;SDS011;10608;42.600;23.398;2023-03-03T08:44:57;25.47;;;24.47;;
20896;SDS011;10608;42.600;23.398;2023-03-03T08:47:22;23.00;;;22.10;;
20896;SDS011;10608;42.600;23.398;2023-03-03T08:49:48;22.40;;;21.50;;
20896;SDS011;10608;42.600;23.398;2023-03-03T08:52:13;22.43;;;21.50;;
20896;SDS011;10608;42.600;23.398;2023-03-03T08:54:38;16.33;;;15.67;;
20896;SDS011;10608;42.600;23.398;2023-03-03T08:57:04;25.87;;;24.87;;
20896;SDS011;10608;42.600;23.398;2023-03-03T08:59:29;35.30;;;33.87;;
20896;SDS011;10608;42.600;23.398;2023-03-03T09:01:54;27.53;;;26.03;;
20896;SDS011;10608;42.600;23.398;2023-03-03T09:04:19;19.43;;;18.53;;
20896;SDS011;10608;42.600;23.398;2023-03-03T09:06:45;21.47;;;20.57;;
20896;SDS011;10608;42.600;23.398;2023-03-03T09:09:10;18.13;;;17.33;;
20896;SDS011;10608;42.600;23.398;2023-03-03T09:11:35;24.23;;;23.20;;
20896;SDS011;10608;42.600;23.398;2023-03-03T09:14:11;22.23;;;21.30;;
20896;SDS011;10608;42.600;23.398;2023-03-03T09:16:37;20.73;;;19.93;;
20896;SDS011;10608;42.600;23.398;2023-03-03T09:21:47;29.20;;;27.97;;
20896;SDS011;10608;42.600;23.398;2023-03-03T09:24:19;29.37;;;28.17;;
20896;SDS011;10608;42.600;23.398;2023-03-03T09:26:46;29.67;;;28.37;;
20896;SDS011;10608;42.600;23.398;2023-03-03T09:29:16;32.50;;;31.00;;
20896;SDS011;10608;42.600;23.398;2023-03-03T09:31:44;38.13;;;36.53;;
20896;SDS011;10608;42.600;23.398;2023-03-03T09:34:19;29.63;;;28.43;;
20896;SDS011;10608;42.600;23.398;2023-03-03T09:36:46;41.10;;;39.37;;
20896;SDS011;10608;42.600;23.398;2023-03-03T09:39:17;37.33;;;35.77;;
20896;SDS011;10608;42.600;23.398;2023-03-03T09:51:56;23.20;;;22.23;;
20896;SDS011;10608;42.600;23.398;2023-03-03T10:02:37;19.47;;;18.67;;
20896;SDS011;10608;42.600;23.398;2023-03-03T10:05:09;34.17;;;32.77;;
20896;SDS011;10608;42.600;23.398;2023-03-03T10:38:51;58.73;;;56.27;;
20896;SDS011;10608;42.600;23.398;2023-03-03T10:52:03;23.47;;;22.50;;
20896;SDS011;10608;42.600;23.398;2023-03-03T10:54:50;22.10;;;21.10;;
20896;SDS011;10608;42.600;23.398;2023-03-03T10:57:25;18.37;;;17.57;;
20896;SDS011;10608;42.600;23.398;2023-03-03T10:59:59;16.93;;;16.23;;
20896;SDS011;10608;42.600;23.398;2023-03-03T11:22:47;20.83;;;19.83;;
20896;SDS011;10608;42.600;23.398;2023-03-03T11:37:45;15.83;;;15.13;;
20896;SDS011;10608;42.600;23.398;2023-03-03T11:40:18;16.50;;;15.80;;
20896;SDS011;10608;42.600;23.398;2023-03-03T11:45:18;17.00;;;16.30;;
20896;SDS011;10608;42.600;23.398;2023-03-03T11:50:16;17.40;;;16.47;;
20896;SDS011;10608;42.600;23.398;2023-03-03T11:55:14;17.50;;;16.73;;
20896;SDS011;10608;42.600;23.398;2023-03-03T11:57:42;16.70;;;16.00;;
20896;SDS011;10608;42.600;23.398;2023-03-03T12:07:53;17.50;;;16.80;;
20896;SDS011;10608;42.600;23.398;2023-03-03T12:13:11;30.97;;;29.60;;
20896;SDS011;10608;42.600;23.398;2023-03-03T12:15:36;25.50;;;24.47;;
20896;SDS011;10608;42.600;23.398;2023-03-03T12:21:13;17.83;;;16.87;;
20896;SDS011;10608;42.600;23.398;2023-03-03T12:26:08;15.87;;;15.17;;
20896;SDS011;10608;42.600;23.398;2023-03-03T12:28:37;18.73;;;17.93;;
20896;SDS011;10608;42.600;23.398;2023-03-03T12:41:02;24.30;;;23.10;;
20896;SDS011;10608;42.600;23.398;2023-03-03T12:46:18;17.33;;;16.53;;
20896;SDS011;10608;42.600;23.398;2023-03-03T12:48:45;16.17;;;15.47;;
20896;SDS011;10608;42.600;23.398;2023-03-03T12:53:48;17.53;;;16.80;;
20896;SDS011;10608;42.600;23.398;2023-03-03T12:56:24;17.37;;;16.57;;
20896;SDS011;10608;42.600;23.398;2023-03-03T12:58:55;19.57;;;18.67;;
20896;SDS011;10608;42.600;23.398;2023-03-03T13:03:58;24.07;;;23.07;;
20896;SDS011;10608;42.600;23.398;2023-03-03T13:11:31;27.90;;;26.77;;
20896;SDS011;10608;42.600;23.398;2023-03-03T13:14:03;27.80;;;26.50;;
20896;SDS011;10608;42.600;23.398;2023-03-03T13:16:37;26.40;;;25.30;;
20896;SDS011;10608;42.600;23.398;2023-03-03T13:19:04;44.63;;;42.60;;
20896;SDS011;10608;42.600;23.398;2023-03-03T13:29:19;29.40;;;28.03;;
20896;SDS011;10608;42.600;23.398;2023-03-03T13:31:56;27.50;;;26.00;;
20896;SDS011;10608;42.600;23.398;2023-03-03T13:37:12;30.40;;;29.10;;
20896;SDS011;10608;42.600;23.398;2023-03-03T13:40:02;31.80;;;30.30;;
20896;SDS011;10608;42.600;23.398;2023-03-03T13:42:33;30.07;;;28.70;;
20896;SDS011;10608;42.600;23.398;2023-03-03T13:45:02;19.57;;;18.77;;
20896;SDS011;10608;42.600;23.398;2023-03-03T13:50:14;16.73;;;16.03;;
20896;SDS011;10608;42.600;23.398;2023-03-03T13:53:08;19.93;;;19.07;;
20896;SDS011;10608;42.600;23.398;2023-03-03T13:55:29;23.60;;;22.43;;
20896;SDS011;10608;42.600;23.398;2023-03-03T14:03:25;21.40;;;20.30;;
20896;SDS011;10608;42.600;23.398;2023-03-03T14:05:56;18.37;;;17.57;;
20896;SDS011;10608;42.600;23.398;2023-03-03T14:14:11;17.37;;;16.57;;
20896;SDS011;10608;42.600;23.398;2023-03-03T14:16:51;25.03;;;23.93;;
20896;SDS011;10608;42.600;23.398;2023-03-03T14:19:24;35.67;;;33.77;;
20896;SDS011;10608;42.600;23.398;2023-03-03T14:24:26;21.40;;;20.53;;
20896;SDS011;10608;42.600;23.398;2023-03-03T14:26:57;18.40;;;17.60;;
20896;SDS011;10608;42.600;23.398;2023-03-03T14:31:50;22.57;;;21.57;;
20896;SDS011;10608;42.600;23.398;2023-03-03T14:36:42;26.43;;;25.33;;
20896;SDS011;10608;42.600;23.398;2023-03-03T14:41:51;17.93;;;17.23;;
20896;SDS011;10608;42.600;23.398;2023-03-03T14:46:42;25.00;;;23.90;;
20896;SDS011;10608;42.600;23.398;2023-03-03T14:49:17;21.87;;;20.93;;
20896;SDS011;10608;42.600;23.398;2023-03-03T14:51:53;31.53;;;30.17;;
20896;SDS011;10608;42.600;23.398;2023-03-03T14:54:26;43.33;;;41.50;;
20896;SDS011;10608;42.600;23.398;2023-03-03T14:59:37;28.47;;;27.30;;
20896;SDS011;10608;42.600;23.398;2023-03-03T15:04:42;26.97;;;25.63;;
20896;SDS011;10608;42.600;23.398;2023-03-03T15:09:51;26.90;;;25.60;;
20896;SDS011;10608;42.600;23.398;2023-03-03T15:12:20;27.27;;;26.07;;
20896;SDS011;10608;42.600;23.398;2023-03-03T15:14:47;27.33;;;26.07;;
20896;SDS011;10608;42.600;23.398;2023-03-03T15:22:38;27.60;;;26.30;;
20896;SDS011;10608;42.600;23.398;2023-03-03T15:27:36;27.73;;;26.63;;
20896;SDS011;10608;42.600;23.398;2023-03-03T15:40:45;27.20;;;26.00;;
20896;SDS011;10608;42.600;23.398;2023-03-03T15:43:25;26.73;;;25.53;;
20896;SDS011;10608;42.600;23.398;2023-03-03T15:46:04;23.57;;;22.57;;
20896;SDS011;10608;42.600;23.398;2023-03-03T15:51:14;23.83;;;22.73;;
20896;SDS011;10608;42.600;23.398;2023-03-03T15:53:59;24.10;;;22.90;;
20896;SDS011;10608;42.600;23.398;2023-03-03T16:02:25;20.53;;;19.50;;
20896;SDS011;10608;42.600;23.398;2023-03-03T16:15:36;28.57;;;27.00;;
20896;SDS011;10608;42.600;23.398;2023-03-03T16:18:26;21.97;;;20.97;;
20896;SDS011;10608;42.600;23.398;2023-03-03T16:21:07;22.67;;;21.67;;
20896;SDS011;10608;42.600;23.398;2023-03-03T16:31:09;19.60;;;18.70;;
20896;SDS011;10608;42.600;23.398;2023-03-03T16:36:12;19.63;;;18.73;;
20896;SDS011;10608;42.600;23.398;2023-03-03T16:38:39;20.00;;;19.13;;
20896;SDS011;10608;42.600;23.398;2023-03-03T16:41:12;17.87;;;17.07;;
20896;SDS011;10608;42.600;23.398;2023-03-03T16:48:52;16.83;;;16.03;;
20896;SDS011;10608;42.600;23.398;2023-03-03T16:56:38;27.87;;;26.07;;
20896;SDS011;10608;42.600;23.398;2023-03-03T17:04:05;28.80;;;27.30;;
20896;SDS011;10608;42.600;23.398;2023-03-03T17:06:42;30.10;;;28.53;;
20896;SDS011;10608;42.600;23.398;2023-03-03T17:11:48;28.10;;;25.90;;
20896;SDS011;10608;42.600;23.398;2023-03-03T17:16:53;23.50;;;22.50;;
20896;SDS011;10608;42.600;23.398;2023-03-03T17:27:00;28.77;;;27.37;;
20896;SDS011;10608;42.600;23.398;2023-03-03T17:32:18;27.10;;;25.77;;
20896;SDS011;10608;42.600;23.398;2023-03-03T17:40:24;31.83;;;30.27;;
20896;SDS011;10608;42.600;23.398;2023-03-03T17:45:19;27.90;;;26.10;;
20896;SDS011;10608;42.600;23.398;2023-03-03T17:47:49;27.20;;;25.80;;
20896;SDS011;10608;42.600;23.398;2023-03-03T18:21:15;57.00;;;54.37;;
20896;SDS011;10608;42.600;23.398;2023-03-03T18:23:44;56.03;;;53.33;;
20896;SDS011;10608;42.600;23.398;2023-03-03T18:31:44;60.47;;;57.87;;
20896;SDS011;10608;42.600;23.398;2023-03-03T18:36:36;45.87;;;43.77;;
20896;SDS011;10608;42.600;23.398;2023-03-03T18:39:02;44.13;;;41.93;;
20896;SDS011;10608;42.600;23.398;2023-03-03T18:41:32;50.73;;;48.33;;
20896;SDS011;10608;42.600;23.398;2023-03-03T18:43:58;52.80;;;50.30;;
20896;SDS011;10608;42.600;23.398;2023-03-03T19:04:34;45.07;;;43.10;;
20896;SDS011;10608;42.600;23.398;2023-03-03T19:07:16;45.37;;;43.20;;
20896;SDS011;10608;42.600;23.398;2023-03-03T19:09:52;31.53;;;30.23;;
20896;SDS011;10608;42.600;23.398;2023-03-03T19:12:43;31.07;;;29.57;;
20896;SDS011;10608;42.600;23.398;2023-03-03T19:15:22;33.93;;;32.43;;
20896;SDS011;10608;42.600;23.398;2023-03-03T19:17:51;35.70;;;33.97;;
20896;SDS011;10608;42.600;23.398;2023-03-03T19:20:17;38.37;;;36.67;;
20896;SDS011;10608;42.600;23.398;2023-03-03T19:23:00;42.97;;;41.00;;
20896;SDS011;10608;42.600;23.398;2023-03-03T19:25:27;43.00;;;41.17;;
20896;SDS011;10608;42.600;23.398;2023-03-03T19:36:03;30.17;;;28.93;;
20896;SDS011;10608;42.600;23.398;2023-03-03T19:38:42;31.37;;;29.93;;
20896;SDS011;10608;42.600;23.398;2023-03-03T19:41:14;28.43;;;27.33;;
20896;SDS011;10608;42.600;23.398;2023-03-03T19:51:32;28.73;;;27.43;;
20896;SDS011;10608;42.600;23.398;2023-03-03T19:56:41;29.80;;;28.50;;
20896;SDS011;10608;42.600;23.398;2023-03-03T19:59:31;33.50;;;31.87;;
20896;SDS011;10608;42.600;23.398;2023-03-03T20:02:01;36.73;;;35.23;;
20896;SDS011;10608;42.600;23.398;2023-03-03T20:07:19;35.77;;;34.07;;
20896;SDS011;10608;42.600;23.398;2023-03-03T20:14:48;27.43;;;26.00;;
20896;SDS011;10608;42.600;23.398;2023-03-03T20:20:18;27.57;;;26.10;;
20896;SDS011;10608;42.600;23.398;2023-03-03T20:27:43;45.40;;;43.23;;
20896;SDS011;10608;42.600;23.398;2023-03-03T20:50:58;27.07;;;25.93;;
20896;SDS011;10608;42.600;23.398;2023-03-03T20:56:00;32.50;;;30.43;;
20896;SDS011;10608;42.600;23.398;2023-03-03T21:01:12;29.53;;;27.90;;
20896;SDS011;10608;42.600;23.398;2023-03-03T21:03:42;29.57;;;28.07;;
20896;SDS011;10608;42.600;23.398;2023-03-03T21:08:55;31.97;;;30.57;;
20896;SDS011;10608;42.600;23.398;2023-03-03T21:13:55;30.47;;;28.87;;
20896;SDS011;10608;42.600;23.398;2023-03-03T21:18:59;28.40;;;27.20;;
20896;SDS011;10608;42.600;23.398;2023-03-03T21:21:27;31.70;;;30.23;;
20896;SDS011;10608;42.600;23.398;2023-03-03T21:23:54;29.63;;;28.33;;
20896;SDS011;10608;42.600;23.398;2023-03-03T21:29:03;49.17;;;47.00;;
20896;SDS011;10608;42.600;23.398;2023-03-03T21:31:28;48.77;;;46.70;;